Terminal Aerodrome Forecast
Issued by NWS

Home | Current Version | Previous Version | Text Only | Print | Product List | Glossary On
Versions: 1 2 3 4 5 6 7 8 9 10 11 12 13 14 15
000
FTAK31 PAJN 052300
TAFAYA
TAF
PAYA 052321Z 0600/0624 24010KT P6SM BKN100
     FM060900 VRB02KT P6SM SCT050 OVC100
      AMD LTD TO CLD VIS AND WIND 0601/0610=

USA.gov is the U.S. government's official web portal to all federal, state and local government web resources and services.